Time;durP1;ratioP1;P1;durP2;ratioP2;P2;SDS_P1;SDS_P2;PMS_P1;PMS_P2;Temp;Humidity;BMP_temperature;BMP_pressure;BME280_temperature;BME280_humidity;BME280_pressure;Samples;Min_cycle;Max_cycle;Signal;HPM_P1;HPM_P2
2021/10/09 00:00:38;;;;;;;30.67;18.15;;;11.80;99.90;;;;;;5040696;28;20038;-73
2021/10/09 00:03:04;;;;;;;29.90;17.83;;;11.80;99.90;;;;;;5042433;28;20056;-73
2021/10/09 00:05:30;;;;;;;29.88;16.95;;;11.80;99.90;;;;;;5044060;28;20021;-73
2021/10/09 00:07:55;;;;;;;27.17;18.02;;;11.80;99.90;;;;;;5054945;28;20040;-73
2021/10/09 00:10:26;;;;;;;32.97;18.17;;;11.80;99.90;;;;;;5043433;28;20041;-73
2021/10/09 00:12:53;;;;;;;28.98;18.67;;;11.70;99.90;;;;;;5038161;28;20049;-73
2021/10/09 00:15:19;;;;;;;27.88;17.17;;;11.70;99.90;;;;;;5041437;28;20108;-73
2021/10/09 00:17:45;;;;;;;28.90;17.48;;;11.70;99.90;;;;;;5042718;28;20067;-73
2021/10/09 00:20:11;;;;;;;30.50;18.40;;;11.70;99.90;;;;;;5043528;28;20060;-73
2021/10/09 00:22:37;;;;;;;24.95;16.13;;;11.70;99.90;;;;;;5034591;28;20025;-73
2021/10/09 00:25:05;;;;;;;28.42;18.15;;;11.70;99.90;;;;;;5052666;28;20029;-73
2021/10/09 00:27:30;;;;;;;26.33;16.38;;;11.60;99.90;;;;;;5028880;28;20034;-73
2021/10/09 00:29:56;;;;;;;33.55;17.52;;;11.60;99.90;;;;;;5027472;28;20025;-73
2021/10/09 00:32:22;;;;;;;29.85;16.38;;;11.60;99.90;;;;;;5043224;28;20094;-73
2021/10/09 00:34:48;;;;;;;25.83;16.25;;;11.60;99.90;;;;;;5040672;28;20571;-73
2021/10/09 00:37:13;;;;;;;31.90;17.17;;;11.60;99.90;;;;;;5032458;28;20030;-73
2021/10/09 00:39:39;;;;;;;31.77;16.70;;;11.60;99.90;;;;;;5031066;28;20379;-73
2021/10/09 00:42:05;;;;;;;25.92;16.17;;;11.50;99.90;;;;;;5047342;28;20033;-73
2021/10/09 00:44:31;;;;;;;29.33;16.92;;;11.50;99.90;;;;;;5041085;28;20025;-73
2021/10/09 00:47:02;;;;;;;25.25;16.40;;;11.40;99.90;;;;;;5038580;28;20104;-73
2021/10/09 00:49:29;;;;;;;26.13;16.52;;;11.40;99.90;;;;;;5040927;28;20075;-73
2021/10/09 00:51:57;;;;;;;28.58;16.88;;;11.40;99.90;;;;;;5043840;28;20085;-73
2021/10/09 00:54:25;;;;;;;33.97;18.27;;;11.40;99.90;;;;;;5051861;28;20684;-73
2021/10/09 00:56:52;;;;;;;31.58;17.60;;;11.40;99.90;;;;;;5033836;28;20042;-73
2021/10/09 00:59:24;;;;;;;30.00;17.15;;;11.40;99.90;;;;;;5032341;28;20031;-73
2021/10/09 01:01:50;;;;;;;;;;;11.40;99.90;;;;;;5015721;28;20471;-73
2021/10/09 01:04:17;;;;;;;28.70;17.73;;;11.40;99.90;;;;;;5026121;28;19921;-73
2021/10/09 01:06:43;;;;;;;32.00;17.70;;;11.30;99.90;;;;;;5022914;28;20028;-73
2021/10/09 01:09:09;;;;;;;26.20;15.85;;;11.30;99.90;;;;;;5045703;28;20344;-73
2021/10/09 01:11:34;;;;;;;30.80;17.38;;;11.30;99.90;;;;;;5030692;28;20033;-73
2021/10/09 01:14:00;;;;;;;27.95;17.23;;;11.30;99.90;;;;;;5043125;28;20025;-73
2021/10/09 01:16:28;;;;;;;29.63;16.50;;;11.30;99.90;;;;;;5051948;28;20037;-73
2021/10/09 01:18:56;;;;;;;30.75;16.88;;;11.20;99.90;;;;;;5045065;28;20036;-73
2021/10/09 01:21:22;;;;;;;29.13;17.35;;;11.20;99.90;;;;;;5043416;28;20074;-73
2021/10/09 01:23:50;;;;;;;24.13;16.08;;;11.20;99.90;;;;;;5044743;28;20242;-73
2021/10/09 01:26:16;;;;;;;24.05;14.95;;;11.20;99.90;;;;;;5036034;28;20025;-73
2021/10/09 01:28:45;;;;;;;26.42;15.27;;;11.20;99.90;;;;;;5032257;28;20048;-73
2021/10/09 01:31:11;;;;;;;26.98;16.42;;;11.20;99.90;;;;;;5051109;28;20100;-73
2021/10/09 01:33:37;;;;;;;26.65;16.77;;;11.20;99.90;;;;;;5051041;28;20784;-73
2021/10/09 01:36:03;;;;;;;24.92;15.68;;;11.20;99.90;;;;;;5044307;28;20053;-73
2021/10/09 01:38:29;;;;;;;27.48;17.33;;;11.10;99.90;;;;;;5039438;28;20610;-73
2021/10/09 01:40:56;;;;;;;26.13;15.38;;;11.20;99.90;;;;;;5037462;28;20087;-73
2021/10/09 01:43:25;;;;;;;26.10;15.35;;;11.10;99.90;;;;;;5040651;28;20100;-73
2021/10/09 01:45:51;;;;;;;25.13;15.45;;;11.10;99.90;;;;;;5037432;28;20040;-73
2021/10/09 01:48:17;;;;;;;26.67;16.90;;;11.10;99.90;;;;;;5033118;28;20060;-73
2021/10/09 01:50:44;;;;;;;24.20;15.70;;;11.10;99.90;;;;;;5042960;28;20483;-73
2021/10/09 01:53:11;;;;;;;26.63;16.33;;;11.00;99.90;;;;;;5043732;28;20131;-73
2021/10/09 01:55:39;;;;;;;26.95;16.00;;;11.10;99.90;;;;;;5042794;28;20112;-73
2021/10/09 01:58:05;;;;;;;25.80;16.02;;;11.00;99.90;;;;;;5037113;28;20037;-73
2021/10/09 02:00:33;;;;;;;24.30;15.38;;;11.00;99.90;;;;;;5030795;28;20030;-73
2021/10/09 02:03:07;;;;;;;25.65;15.77;;;11.00;99.90;;;;;;5031753;28;20390;-73
2021/10/09 02:05:34;;;;;;;24.73;15.98;;;11.00;99.90;;;;;;5050048;28;20028;-73
2021/10/09 02:08:00;;;;;;;27.77;17.33;;;11.00;99.90;;;;;;5048922;28;20474;-73
2021/10/09 02:10:26;;;;;;;29.17;16.15;;;11.00;99.90;;;;;;5036691;28;20451;-73
2021/10/09 02:12:53;;;;;;;22.70;15.80;;;10.90;99.90;;;;;;5040594;28;20159;-73
2021/10/09 02:15:27;;;;;;;28.98;16.88;;;10.90;99.90;;;;;;5038371;28;20060;-73
2021/10/09 02:26:07;;;;;;;28.77;16.98;;;10.80;99.90;;;;;;5019971;28;20023;-73
2021/10/09 02:28:32;;;;;;;26.05;15.82;;;10.80;99.90;;;;;;5040916;28;20104;-73
2021/10/09 02:30:58;;;;;;;25.55;15.50;;;10.70;99.90;;;;;;5044523;28;20025;-73
2021/10/09 02:33:24;;;;;;;25.20;15.50;;;10.70;99.90;;;;;;5033400;28;20033;-73
2021/10/09 02:35:50;;;;;;;24.73;16.05;;;10.70;99.90;;;;;;5032203;28;20040;-73
2021/10/09 02:38:16;;;;;;;27.00;15.55;;;10.70;99.90;;;;;;5050427;28;20082;-73
2021/10/09 02:40:43;;;;;;;24.48;16.23;;;10.60;99.90;;;;;;5047601;28;20052;-73
2021/10/09 02:43:08;;;;;;;29.80;16.73;;;10.60;99.90;;;;;;5041029;28;20180;-73
2021/10/09 02:45:34;;;;;;;26.70;15.88;;;10.60;99.90;;;;;;5038127;28;20032;-73
2021/10/09 02:48:02;;;;;;;31.48;17.27;;;10.60;99.90;;;;;;5044876;28;20026;-73
2021/10/09 02:50:29;;;;;;;27.20;15.32;;;10.60;99.90;;;;;;5030006;28;20590;-73
2021/10/09 02:52:56;;;;;;;25.38;15.32;;;10.50;99.90;;;;;;5039523;28;20123;-73
2021/10/09 02:55:22;;;;;;;27.48;16.27;;;10.60;99.90;;;;;;5050215;28;20037;-73
2021/10/09 02:57:49;;;;;;;37.13;18.75;;;10.50;99.90;;;;;;5045151;28;20474;-73
2021/10/09 03:00:16;;;;;;;26.02;16.73;;;10.50;99.90;;;;;;5035708;28;20041;-73
2021/10/09 03:02:42;;;;;;;27.52;16.65;;;10.40;99.90;;;;;;5037567;28;20040;-73
2021/10/09 03:05:10;;;;;;;26.77;15.98;;;10.40;99.90;;;;;;5044418;28;20044;-72
2021/10/09 03:07:36;;;;;;;27.52;14.70;;;10.40;99.90;;;;;;5049704;28;20033;-73
2021/10/09 03:10:03;;;;;;;25.95;15.35;;;10.40;99.90;;;;;;5012457;28;20028;-73
2021/10/09 03:12:29;;;;;;;25.65;16.65;;;10.40;99.90;;;;;;5029761;28;20029;-73
2021/10/09 03:14:55;;;;;;;26.85;16.52;;;10.40;99.90;;;;;;5036196;28;20024;-73
2021/10/09 03:17:20;;;;;;;30.42;18.23;;;10.40;99.90;;;;;;5041734;28;20029;-73
2021/10/09 03:19:46;;;;;;;26.25;16.20;;;10.40;99.90;;;;;;5033051;28;20053;-73
2021/10/09 03:22:12;;;;;;;25.67;15.63;;;10.40;99.90;;;;;;5049237;28;20040;-72
2021/10/09 03:24:38;;;;;;;25.13;15.77;;;10.40;99.90;;;;;;5023737;28;20025;-73
2021/10/09 03:27:03;;;;;;;27.85;16.92;;;10.30;99.90;;;;;;5012345;28;20574;-73
2021/10/09 03:29:29;;;;;;;28.05;16.65;;;10.30;99.90;;;;;;5029954;28;20219;-73
2021/10/09 03:31:55;;;;;;;25.45;15.75;;;10.20;99.90;;;;;;5035844;28;20479;-72
2021/10/09 03:34:21;;;;;;;24.63;15.43;;;10.20;99.90;;;;;;5042076;28;20048;-73
2021/10/09 03:36:46;;;;;;;24.15;15.52;;;10.20;99.90;;;;;;5045375;28;20044;-73
2021/10/09 03:39:16;;;;;;;22.60;15.52;;;10.20;99.90;;;;;;5038529;28;20049;-73
2021/10/09 03:41:47;;;;;;;25.90;16.05;;;10.20;99.90;;;;;;5037643;28;20029;-72
2021/10/09 03:44:12;;;;;;;26.70;15.80;;;10.20;99.90;;;;;;5044672;28;20394;-72
2021/10/09 03:46:43;;;;;;;23.48;15.77;;;10.10;99.90;;;;;;5044771;28;20025;-72
2021/10/09 03:49:25;;;;;;;26.65;16.33;;;10.10;99.90;;;;;;5043051;28;20087;-72
2021/10/09 03:54:35;;;;;;;28.52;16.25;;;10.10;99.90;;;;;;5035790;28;20083;-72
2021/10/09 03:57:01;;;;;;;23.83;14.90;;;10.10;99.90;;;;;;5053400;28;20037;-73
2021/10/09 03:59:27;;;;;;;24.48;15.70;;;10.00;99.90;;;;;;5046386;28;20021;-72
2021/10/09 04:01:52;;;;;;;30.73;16.23;;;10.10;99.90;;;;;;5031381;28;20112;-72
2021/10/09 04:04:18;;;;;;;25.27;16.10;;;10.00;99.90;;;;;;5015387;28;20030;-72
2021/10/09 04:06:44;;;;;;;24.13;15.48;;;10.00;99.90;;;;;;5041081;28;20021;-72
2021/10/09 04:09:09;;;;;;;26.08;16.65;;;10.00;99.90;;;;;;5041535;28;20101;-73
2021/10/09 04:11:35;;;;;;;23.98;15.27;;;9.90;99.90;;;;;;5050144;28;20025;-72
2021/10/09 04:14:01;;;;;;;26.45;16.50;;;9.90;99.90;;;;;;5033627;28;20044;-72
2021/10/09 04:16:26;;;;;;;23.92;15.77;;;9.90;99.90;;;;;;5021683;28;20040;-72
2021/10/09 04:18:52;;;;;;;24.80;15.23;;;9.90;99.90;;;;;;5052484;28;20029;-72
2021/10/09 04:21:18;;;;;;;24.13;15.25;;;9.90;99.90;;;;;;5049934;28;20029;-72
2021/10/09 04:23:44;;;;;;;25.73;15.20;;;9.90;99.90;;;;;;5039953;28;20044;-72
2021/10/09 04:26:09;;;;;;;25.25;15.07;;;9.80;99.90;;;;;;5041498;28;20108;-72
2021/10/09 04:28:35;;;;;;;27.63;16.27;;;9.90;99.90;;;;;;5042613;28;20025;-72
2021/10/09 04:31:01;;;;;;;26.27;16.58;;;9.80;99.90;;;;;;5017881;28;20513;-72
2021/10/09 04:33:29;;;;;;;23.10;14.95;;;9.80;99.90;;;;;;5037524;28;20044;-72
2021/10/09 04:35:55;;;;;;;27.67;15.70;;;9.80;99.90;;;;;;5032487;28;20510;-71
2021/10/09 04:38:21;;;;;;;23.23;15.55;;;9.80;99.90;;;;;;5036074;28;20033;-72
2021/10/09 04:40:47;;;;;;;27.65;16.52;;;9.80;99.90;;;;;;5043329;28;20026;-72
2021/10/09 04:43:13;;;;;;;24.58;16.35;;;9.80;99.90;;;;;;5040559;28;20030;-72
2021/10/09 04:45:38;;;;;;;31.23;15.95;;;9.70;99.90;;;;;;5047562;28;20108;-72
2021/10/09 04:48:05;;;;;;;25.83;15.05;;;9.70;99.90;;;;;;5032289;28;20032;-72
2021/10/09 04:50:31;;;;;;;23.88;15.32;;;9.70;99.90;;;;;;5023895;28;20096;-73
2021/10/09 04:52:57;;;;;;;23.45;15.27;;;9.70;99.90;;;;;;5051769;28;20072;-73
2021/10/09 04:55:22;;;;;;;28.45;15.95;;;9.70;99.90;;;;;;5026933;28;20021;-71
2021/10/09 04:57:48;;;;;;;27.98;15.90;;;9.60;99.90;;;;;;5039865;28;20491;-72
2021/10/09 05:00:14;;;;;;;27.73;15.40;;;9.60;99.90;;;;;;5017522;28;20030;-73
2021/10/09 05:02:40;;;;;;;20.27;13.73;;;9.60;99.90;;;;;;5049910;28;20029;-72
2021/10/09 05:05:06;;;;;;;24.13;15.10;;;9.60;99.90;;;;;;5047942;28;20471;-72
2021/10/09 05:07:32;;;;;;;23.85;14.27;;;9.50;99.90;;;;;;5031986;28;20129;-72
2021/10/09 05:09:57;;;;;;;29.50;15.55;;;9.50;99.90;;;;;;5035959;28;20032;-71
2021/10/09 05:12:23;;;;;;;23.52;15.40;;;9.50;99.90;;;;;;5043701;28;20467;-73
2021/10/09 05:14:49;;;;;;;28.40;15.68;;;9.50;99.90;;;;;;5044624;28;20037;-73
2021/10/09 05:17:15;;;;;;;26.10;15.40;;;9.50;99.90;;;;;;5036468;28;20295;-72
2021/10/09 05:19:41;;;;;;;26.38;15.93;;;9.50;99.90;;;;;;5032238;28;20083;-71
2021/10/09 05:22:07;;;;;;;29.52;14.80;;;9.50;99.90;;;;;;5051204;28;20033;-72
2021/10/09 05:24:33;;;;;;;23.88;15.05;;;9.50;99.90;;;;;;5051635;28;20518;-72
2021/10/09 05:26:59;;;;;;;23.98;14.73;;;9.40;99.90;;;;;;5038127;28;20029;-72
2021/10/09 05:29:25;;;;;;;28.10;15.35;;;9.40;99.90;;;;;;5024882;28;20075;-72
2021/10/09 05:31:52;;;;;;;27.70;15.48;;;9.40;99.90;;;;;;5034820;28;20581;-72
2021/10/09 05:34:19;;;;;;;26.23;14.25;;;9.30;99.90;;;;;;5051239;28;20033;-72
2021/10/09 05:36:44;;;;;;;26.48;15.48;;;9.30;99.90;;;;;;5041887;28;20498;-72
2021/10/09 05:39:10;;;;;;;22.92;14.50;;;9.30;99.90;;;;;;5031329;28;20116;-72
2021/10/09 05:41:36;;;;;;;21.38;14.05;;;9.30;99.90;;;;;;5034204;28;20537;-73
2021/10/09 05:44:03;;;;;;;25.92;14.65;;;9.20;99.90;;;;;;5041013;28;20086;-72
2021/10/09 05:46:28;;;;;;;27.70;15.20;;;9.30;99.90;;;;;;5033497;28;20018;-72
2021/10/09 05:48:55;;;;;;;23.00;14.27;;;9.30;99.90;;;;;;5051001;28;20036;-72
2021/10/09 05:51:29;;;;;;;28.17;14.15;;;9.30;99.90;;;;;;5044742;28;20083;-71
2021/10/09 06:51:08;;;;;;;25.08;12.82;;;9.30;98.70;;;;;;5045218;28;20448;-73
2021/10/09 07:01:34;;;;;;;29.40;13.18;;;9.30;98.70;;;;;;5048627;28;20031;-73
2021/10/09 07:04:00;;;;;;;20.17;12.68;;;9.30;98.60;;;;;;5044844;28;20017;-72
2021/10/09 07:06:25;;;;;;;24.92;13.02;;;9.30;98.50;;;;;;5044529;28;20026;-71
2021/10/09 07:08:51;;;;;;;21.73;12.95;;;9.40;98.50;;;;;;5043476;28;20535;-72
2021/10/09 07:11:17;;;;;;;23.15;12.15;;;9.30;98.30;;;;;;5030808;28;20045;-72
2021/10/09 07:13:43;;;;;;;29.33;12.90;;;9.40;98.40;;;;;;5034652;28;20037;-72
2021/10/09 07:16:09;;;;;;;21.45;12.35;;;9.40;97.80;;;;;;5054082;28;20040;-72
2021/10/09 07:18:35;;;;;;;24.80;13.02;;;9.40;97.70;;;;;;5036357;28;20025;-72
2021/10/09 07:21:00;;;;;;;26.70;12.55;;;9.50;97.70;;;;;;5044476;28;20029;-72
2021/10/09 07:23:27;;;;;;;22.90;12.93;;;9.50;97.50;;;;;;5041439;28;20491;-72
2021/10/09 07:25:52;;;;;;;23.10;12.80;;;9.50;97.30;;;;;;5049455;28;20017;-71
2021/10/09 07:28:18;;;;;;;20.63;12.13;;;9.50;97.10;;;;;;5033730;28;20403;-72
2021/10/09 07:30:44;;;;;;;23.05;12.60;;;9.50;97.30;;;;;;5042666;28;20060;-72
2021/10/09 07:33:11;;;;;;;23.13;12.15;;;9.50;97.10;;;;;;5053607;28;20033;-72
2021/10/09 07:35:37;;;;;;;25.85;13.02;;;9.60;97.30;;;;;;5032081;28;20030;-72
2021/10/09 07:38:03;;;;;;;24.38;12.65;;;9.60;97.30;;;;;;5039198;28;20495;-72
2021/10/09 07:40:29;;;;;;;23.00;12.68;;;9.70;96.80;;;;;;5041876;28;20026;-72
2021/10/09 07:42:54;;;;;;;21.88;12.98;;;9.70;96.60;;;;;;5037718;28;20029;-72
2021/10/09 07:45:20;;;;;;;18.15;10.88;;;9.70;96.80;;;;;;5050746;28;20037;-72
2021/10/09 07:47:46;;;;;;;21.40;10.68;;;9.80;97.00;;;;;;5033430;28;20033;-72
2021/10/09 07:50:12;;;;;;;19.70;12.45;;;9.80;97.00;;;;;;5040076;28;20024;-72
2021/10/09 07:52:39;;;;;;;30.75;13.10;;;9.90;96.50;;;;;;5047436;28;20025;-72
2021/10/09 07:55:06;;;;;;;21.88;12.85;;;9.90;96.60;;;;;;5036017;28;20029;-72
2021/10/09 07:57:32;;;;;;;21.52;11.57;;;9.90;96.20;;;;;;5052797;28;20029;-72
2021/10/09 07:59:58;;;;;;;22.45;12.10;;;9.90;96.20;;;;;;5040013;28;20113;-73
2021/10/09 08:02:23;;;;;;;23.35;11.88;;;10.00;95.80;;;;;;5032302;28;20541;-72
2021/10/09 08:04:51;;;;;;;22.98;12.63;;;10.00;95.50;;;;;;5050463;28;20025;-72
2021/10/09 08:07:16;;;;;;;23.35;11.82;;;10.00;95.50;;;;;;5035276;28;20071;-72
2021/10/09 08:09:42;;;;;;;19.45;11.95;;;10.00;95.70;;;;;;5049035;28;20029;-73
2021/10/09 08:12:08;;;;;;;26.85;12.88;;;10.10;95.00;;;;;;5048895;28;20037;-72
2021/10/09 08:14:34;;;;;;;20.33;12.40;;;10.10;95.20;;;;;;5043930;28;20025;-72
2021/10/09 08:16:59;;;;;;;26.70;11.70;;;10.10;95.00;;;;;;5021607;28;20041;-72
2021/10/09 08:19:25;;;;;;;20.85;11.73;;;10.10;94.60;;;;;;5014903;28;20029;-72
2021/10/09 08:21:52;;;;;;;28.40;12.88;;;10.20;95.00;;;;;;5050117;28;20144;-72
2021/10/09 08:24:28;;;;;;;23.98;11.88;;;10.20;94.80;;;;;;5034473;28;20090;-72
2021/10/09 08:27:21;;;;;;;26.05;13.63;;;10.20;94.50;;;;;;5039212;28;20514;-72
2021/10/09 08:35:38;;;;;;;22.17;11.63;;;10.30;94.10;;;;;;5052478;28;20479;-72
2021/10/09 08:40:48;;;;;;;22.42;11.48;;;10.40;94.20;;;;;;5032103;28;20030;-72
2021/10/09 08:43:15;;;;;;;20.45;11.90;;;10.50;94.40;;;;;;5037529;28;20326;-72
2021/10/09 08:45:40;;;;;;;19.17;11.20;;;10.50;94.20;;;;;;5037194;28;20498;-72
2021/10/09 08:48:06;;;;;;;20.88;11.85;;;10.60;93.90;;;;;;5052404;28;20028;-72
2021/10/09 08:50:32;;;;;;;21.20;11.32;;;10.70;93.40;;;;;;5042458;28;20029;-72
2021/10/09 08:53:03;;;;;;;18.27;11.15;;;10.70;92.80;;;;;;5032018;28;20041;-72
2021/10/09 08:55:29;;;;;;;;;;;10.70;93.00;;;;;;5032445;28;20045;-72
2021/10/09 08:58:02;;;;;;;19.25;10.77;;;10.70;93.20;;;;;;5043477;28;19912;-73
2021/10/09 09:01:11;;;;;;;23.25;10.70;;;10.70;93.30;;;;;;5047343;28;20044;-72
2021/10/09 09:26:46;;;;;;;17.33;9.10;;;11.30;90.10;;;;;;5035439;28;20490;-73
2021/10/09 09:40:03;;;;;;;14.95;7.90;;;12.40;88.50;;;;;;5031541;28;20029;-73
2021/10/09 09:42:30;;;;;;;12.25;6.63;;;12.80;85.40;;;;;;5030655;28;20636;-73
2021/10/09 09:45:00;;;;;;;14.93;7.18;;;13.20;84.40;;;;;;5034013;28;20021;-74
2021/10/09 09:47:37;;;;;;;14.77;7.28;;;13.70;82.60;;;;;;5039715;28;20033;-74
2021/10/09 09:50:05;;;;;;;18.73;7.20;;;14.30;80.90;;;;;;5021894;28;20090;-74
2021/10/09 09:52:35;;;;;;;14.35;7.45;;;14.90;78.40;;;;;;5031218;28;20484;-74
2021/10/09 09:55:02;;;;;;;13.40;6.33;;;15.60;75.20;;;;;;5048393;28;20368;-74
2021/10/09 09:57:30;;;;;;;15.73;6.55;;;16.60;73.70;;;;;;5051158;28;20033;-74
2021/10/09 09:59:57;;;;;;;9.85;5.75;;;17.70;65.30;;;;;;5050666;28;20033;-74
2021/10/09 10:02:27;;;;;;;11.30;5.28;;;19.00;61.40;;;;;;5044365;28;20383;-74
2021/10/09 10:04:53;;;;;;;12.75;6.63;;;20.70;53.30;;;;;;5047426;28;20033;-74
2021/10/09 10:07:20;;;;;;;8.00;5.32;;;22.50;48.10;;;;;;5031098;28;20029;-74
2021/10/09 10:09:46;;;;;;;12.95;5.72;;;23.90;44.30;;;;;;5035735;28;20082;-74
2021/10/09 10:12:13;;;;;;;10.18;5.22;;;25.50;38.10;;;;;;5050474;28;20486;-74
2021/10/09 10:14:42;;;;;;;11.88;5.20;;;26.20;38.80;;;;;;5032488;28;20159;-74
2021/10/09 10:17:08;;;;;;;11.18;5.47;;;26.20;35.60;;;;;;5050524;28;20025;-74
2021/10/09 10:20:10;;;;;;;9.80;5.35;;;26.30;35.20;;;;;;5046475;28;20014;-74
2021/10/09 10:22:36;;;;;;;11.18;5.00;;;26.20;32.70;;;;;;4988208;28;20100;-74
2021/10/09 10:25:23;;;;;;;7.60;5.25;;;25.90;33.40;;;;;;5030427;28;20026;-74
2021/10/09 10:28:02;;;;;;;10.32;5.13;;;25.70;34.20;;;;;;5047965;28;20482;-74
2021/10/09 10:31:04;;;;;;;9.90;4.85;;;25.90;34.10;;;;;;5050299;28;20287;-74
2021/10/09 10:33:38;;;;;;;10.27;4.43;;;26.20;34.60;;;;;;5041248;28;20088;-74
2021/10/09 10:36:05;;;;;;;10.15;4.70;;;26.20;34.40;;;;;;5032689;28;20582;-74
2021/10/09 10:38:41;;;;;;;15.23;5.13;;;26.20;33.50;;;;;;5040956;28;20391;-74
2021/10/09 10:41:09;;;;;;;10.18;4.78;;;26.20;34.40;;;;;;5031453;28;20033;-74
2021/10/09 10:46:37;;;;;;;9.20;4.68;;;25.00;34.70;;;;;;5042279;28;20025;-74
2021/10/09 10:59:32;;;;;;;11.05;4.85;;;28.70;29.60;;;;;;5036119;28;20064;-74
2021/10/09 11:02:24;;;;;;;11.70;5.05;;;28.30;27.80;;;;;;5049047;28;20385;-74
2021/10/09 11:05:00;;;;;;;9.73;4.78;;;26.70;29.90;;;;;;5048752;28;20450;-74
2021/10/09 11:07:28;;;;;;;9.45;4.53;;;25.50;30.90;;;;;;5047010;28;20506;-74
2021/10/09 11:09:59;;;;;;;10.32;4.75;;;24.90;33.20;;;;;;5019992;28;20046;-74
2021/10/09 11:12:30;;;;;;;9.82;4.35;;;24.90;32.30;;;;;;5037590;28;20119;-73
2021/10/09 11:15:05;;;;;;;10.25;4.78;;;25.00;32.60;;;;;;5045031;28;20030;-74
2021/10/09 11:17:41;;;;;;;7.40;4.22;;;25.00;32.60;;;;;;5029966;28;20036;-73
2021/10/09 11:20:20;;;;;;;10.93;5.90;;;24.70;32.80;;;;;;5042117;28;20025;-73
2021/10/09 11:22:49;;;;;;;14.63;4.82;;;23.60;34.10;;;;;;5049470;28;20577;-73
2021/10/09 11:25:33;;;;;;;11.93;5.22;;;22.70;36.50;;;;;;5045064;28;20033;-73
2021/10/09 11:28:02;;;;;;;13.88;5.68;;;21.90;38.90;;;;;;5042389;28;20041;-74
2021/10/09 11:30:29;;;;;;;12.15;5.43;;;21.00;39.80;;;;;;5040664;28;20033;-74
2021/10/09 11:32:56;;;;;;;10.88;5.32;;;20.20;41.80;;;;;;5036795;28;20510;-73
2021/10/09 11:35:53;;;;;;;14.45;5.40;;;19.50;43.30;;;;;;5029605;28;20060;-74
2021/10/09 11:38:32;;;;;;;11.80;6.22;;;18.50;44.60;;;;;;5009757;28;20046;-74
2021/10/09 11:41:04;;;;;;;13.18;6.05;;;17.80;47.00;;;;;;5029591;28;20061;-73
2021/10/09 11:43:43;;;;;;;13.52;6.18;;;17.30;48.30;;;;;;5037334;28;20051;-74
2021/10/09 11:46:23;;;;;;;14.93;5.70;;;17.00;49.20;;;;;;5038617;28;20041;-73
2021/10/09 11:57:12;;;;;;;15.43;6.97;;;16.10;53.00;;;;;;5031916;28;20034;-73
2021/10/09 11:59:39;;;;;;;13.07;6.82;;;15.80;54.30;;;;;;5040989;28;20504;-73
2021/10/09 12:02:06;;;;;;;16.20;6.63;;;15.60;54.70;;;;;;5042231;28;20033;-74
2021/10/09 12:04:33;;;;;;;15.60;6.55;;;15.40;55.60;;;;;;5035347;28;20025;-73
2021/10/09 12:07:09;;;;;;;10.05;5.78;;;15.20;56.00;;;;;;5052895;28;20059;-73
2021/10/09 12:09:45;;;;;;;12.85;5.82;;;15.10;56.60;;;;;;5044928;28;20057;-74
2021/10/09 12:12:19;;;;;;;11.20;6.47;;;15.00;57.60;;;;;;5032641;28;20042;-74
2021/10/09 12:14:45;;;;;;;14.70;6.55;;;14.90;58.20;;;;;;5032820;28;20029;-73
2021/10/09 12:17:12;;;;;;;16.35;6.53;;;14.80;59.30;;;;;;5020759;28;20025;-73
2021/10/09 12:19:37;;;;;;;17.10;6.82;;;14.80;60.20;;;;;;5039764;28;20494;-73
2021/10/09 12:22:14;;;;;;;15.20;6.03;;;14.70;59.70;;;;;;5047380;28;20048;-73
2021/10/09 12:24:47;;;;;;;13.40;5.93;;;14.70;59.40;;;;;;5033974;28;20031;-74
2021/10/09 12:27:22;;;;;;;14.57;6.47;;;14.60;60.30;;;;;;5037559;28;20025;-73
2021/10/09 12:30:08;;;;;;;12.32;5.70;;;14.50;60.10;;;;;;5053408;28;20490;-74
2021/10/09 12:32:40;;;;;;;11.18;6.13;;;14.40;61.00;;;;;;5047475;28;20028;-73
2021/10/09 12:35:26;;;;;;;10.02;5.65;;;14.50;62.70;;;;;;5041525;28;20459;-73
2021/10/09 12:38:00;;;;;;;11.63;6.50;;;14.40;61.50;;;;;;5032699;28;20506;-73
2021/10/09 12:40:42;;;;;;;12.30;6.15;;;14.40;61.60;;;;;;5048266;28;20044;-74
2021/10/09 12:43:10;;;;;;;;;;;14.30;62.00;;;;;;5023211;28;20039;-73
2021/10/09 12:45:37;;;;;;;11.38;5.60;;;14.30;63.20;;;;;;5048345;28;19909;-73
2021/10/09 12:48:03;;;;;;;11.60;5.40;;;14.30;63.10;;;;;;5033215;28;20022;-73
2021/10/09 12:50:32;;;;;;;13.45;5.82;;;14.30;63.70;;;;;;5040420;28;20025;-73
2021/10/09 12:52:58;;;;;;;10.35;4.97;;;14.30;62.50;;;;;;5045054;28;20395;-73
2021/10/09 12:55:26;;;;;;;11.43;5.65;;;14.20;61.40;;;;;;5025467;28;20029;-73
2021/10/09 12:57:57;;;;;;;15.10;5.25;;;14.20;61.20;;;;;;5039821;28;20254;-73
2021/10/09 13:00:24;;;;;;;9.40;4.97;;;14.20;60.40;;;;;;5032195;28;20060;-73
2021/10/09 13:02:53;;;;;;;12.32;5.20;;;14.20;61.00;;;;;;5049572;28;20033;-73
2021/10/09 13:05:21;;;;;;;10.30;5.03;;;14.10;61.50;;;;;;5052016;28;20102;-73
2021/10/09 13:07:48;;;;;;;9.52;4.85;;;14.20;61.60;;;;;;5041515;28;20029;-73
2021/10/09 13:10:14;;;;;;;9.63;4.82;;;14.20;60.70;;;;;;5043154;28;20364;-73
2021/10/09 13:12:40;;;;;;;9.40;4.78;;;14.20;60.40;;;;;;5033912;28;20285;-73
2021/10/09 13:15:07;;;;;;;10.48;4.90;;;14.20;59.50;;;;;;5051976;28;20650;-73
2021/10/09 13:17:32;;;;;;;11.80;5.18;;;14.20;59.60;;;;;;5044820;28;20061;-74
2021/10/09 13:19:58;;;;;;;7.13;4.63;;;14.20;59.20;;;;;;5031936;28;20057;-73
2021/10/09 13:22:24;;;;;;;10.30;5.22;;;14.20;59.80;;;;;;5031255;28;20565;-73
2021/10/09 13:24:49;;;;;;;8.27;5.05;;;14.10;60.40;;;;;;5037566;28;20031;-73
2021/10/09 13:27:15;;;;;;;11.48;5.15;;;14.10;60.60;;;;;;5043079;28;20017;-73
2021/10/09 13:29:41;;;;;;;8.32;4.65;;;14.10;61.50;;;;;;5034129;28;20075;-73
2021/10/09 13:32:07;;;;;;;14.85;5.53;;;14.10;61.90;;;;;;5051184;28;20037;-73
2021/10/09 13:34:32;;;;;;;10.70;5.40;;;14.10;62.40;;;;;;5043767;28;20029;-73
2021/10/09 13:36:58;;;;;;;13.57;5.40;;;14.20;61.30;;;;;;5031394;28;20461;-73
2021/10/09 13:39:24;;;;;;;9.80;5.40;;;14.10;60.90;;;;;;5035856;28;20479;-73
2021/10/09 13:41:50;;;;;;;12.38;5.68;;;14.10;61.50;;;;;;5025015;28;20509;-73
2021/10/09 13:44:15;;;;;;;11.77;5.18;;;14.10;61.20;;;;;;5033540;28;20074;-73
2021/10/09 13:46:44;;;;;;;11.35;4.65;;;14.10;61.40;;;;;;5038500;28;20475;-72
2021/10/09 13:49:10;;;;;;;11.43;4.70;;;14.10;60.60;;;;;;5031115;28;20026;-73
2021/10/09 13:51:36;;;;;;;15.80;4.80;;;14.10;60.10;;;;;;5049215;28;20037;-73
2021/10/09 13:54:02;;;;;;;8.02;4.88;;;14.10;60.80;;;;;;5031774;28;20031;-73
2021/10/09 13:56:28;;;;;;;11.75;5.00;;;14.10;60.50;;;;;;5043443;28;20037;-73
2021/10/09 13:58:54;;;;;;;13.27;4.78;;;14.00;60.50;;;;;;5041038;28;20064;-73
2021/10/09 14:01:19;;;;;;;8.65;4.63;;;14.10;60.90;;;;;;5042027;28;20388;-73
2021/10/09 14:03:46;;;;;;;9.88;4.93;;;14.10;61.00;;;;;;5031303;28;20030;-73
2021/10/09 14:06:12;;;;;;;8.98;5.00;;;14.00;61.00;;;;;;5043855;28;20048;-73
2021/10/09 14:08:38;;;;;;;7.05;4.80;;;14.10;60.20;;;;;;5050828;28;20029;-74
2021/10/09 14:11:04;;;;;;;12.70;4.60;;;14.00;58.30;;;;;;5043381;28;20028;-73
2021/10/09 14:13:30;;;;;;;10.38;5.47;;;14.10;59.30;;;;;;5041335;28;20490;-73
2021/10/09 14:15:56;;;;;;;12.35;5.28;;;14.10;59.90;;;;;;5044602;28;20033;-73
2021/10/09 14:18:23;;;;;;;10.73;5.28;;;14.00;58.70;;;;;;5034000;28;20040;-73
2021/10/09 14:20:51;;;;;;;15.13;5.15;;;14.00;58.70;;;;;;5031593;28;20041;-73
2021/10/09 14:23:17;;;;;;;12.40;5.30;;;14.00;59.60;;;;;;5050523;28;20059;-73
2021/10/09 14:25:44;;;;;;;11.13;5.18;;;14.00;60.10;;;;;;5043157;28;20446;-73
2021/10/09 14:28:11;;;;;;;9.80;4.78;;;14.10;58.60;;;;;;5044158;28;20487;-73
2021/10/09 14:30:40;;;;;;;8.10;4.53;;;14.10;58.60;;;;;;5041945;28;20037;-73
2021/10/09 14:33:07;;;;;;;8.32;4.55;;;14.20;58.40;;;;;;5035886;28;20544;-73
2021/10/09 14:35:35;;;;;;;9.57;4.35;;;14.20;58.80;;;;;;5030741;28;20057;-73
2021/10/09 14:38:02;;;;;;;10.13;4.25;;;14.20;58.40;;;;;;5052582;28;20600;-73
2021/10/09 14:40:28;;;;;;;10.57;4.47;;;14.20;58.50;;;;;;5049139;28;20033;-73
2021/10/09 14:42:55;;;;;;;9.20;4.57;;;14.20;57.50;;;;;;5039926;28;20049;-73
2021/10/09 14:45:22;;;;;;;10.35;3.95;;;14.20;58.20;;;;;;5037932;28;20112;-73
2021/10/09 14:47:58;;;;;;;10.15;4.60;;;14.10;58.60;;;;;;5046508;28;20037;-73
2021/10/09 14:53:09;;;;;;;8.25;4.28;;;14.10;58.60;;;;;;5022259;28;20123;-72
2021/10/09 14:56:12;;;;;;;10.02;4.65;;;14.10;59.00;;;;;;5050085;28;20071;-73
2021/10/09 15:01:55;;;;;;;7.32;4.60;;;14.10;58.90;;;;;;5035629;28;20498;-73
2021/10/09 15:20:27;;;;;;;8.38;4.32;;;13.90;60.60;;;;;;5041177;28;20044;-73
2021/10/09 15:22:53;;;;;;;7.60;4.22;;;13.90;60.30;;;;;;5036969;28;20084;-73